Springfield, Georgia
Current Conditions -  °F | °C
As of 10:53 AM on Monday 26 Jan 2015 (Local Time) from KSAV Reporting Station
Broken Clouds Broken Clouds  
Wind Chill: 54°   Ceiling: 3400
Heat Index: 54°   Visibility: 10mi
Dew Point: 38°   Wind: 21mph
Humidity: 55%   Direction: 290°WNW
Pressure: 29.76"   Gusts: 29mph
Location:  32.37°N, 81.31°W
Report Text: KSAV 261553Z 29018G25KT 10SM BKN034 12/03 A2976 RMK AO2 PK WND 28027/1518 SLP076 T01220033
Loading
Personal Weather Stations






























Interactive Weather Map New forecast layout! Learn more

10-Day Weather Forecast

Advertisements
Track Severe Weather on mobile